Hlavní strana
METAR-TAF:

METAR-TAF

Letiště :

Delaware County Airport (Johnson Field)

Muncie, Indiana, Spojené státy americké

zeměpisná šířka: 40-14-03N, zeměpisná délka: 085-23-37W, výška: 285 m

Aktuální stav počasí

Zpráva byla vytvořena před 19 minutami, v 04:53 UTC
Západoseverozápadní vítr 4 kt
Teplota 19°C
Vlhkost vzduchu 88%
Tlak 1015 hPa
Viditelnost: 9.7 km
Jasno
kouřmo

METAR: KMIE 220453Z 30004KT 6SM BR CLR 19/17 A2998 RMK AO2 SLP141 T01940172 402780189

Čas: 01:12 (05:12 UTC)


TAF: chybějící

Stav a předpovědi počasí z více než 4 000 letišť (zprávy METAR a TAF).

Červené a žluté tečky na mapě představují dostupné meteorologické stanice.

Když kurzor umístíte na tečku, zobrazí se název stanice.

Pak kliknutím zobrazíte stav a předpověď počasí.

Chcete-li změnit mapu, kliknutím na zelené tlačítko se znaménkem +mapu přiblížíte, kliknutím na zelené tlačítko se znaménkem – mapu oddálíte a kliknutím na zelené šipky přejdete na sousední mapy.


METAR-TAF: